KPQN

Details ICAO KPQN
Name PIPESTONE MUNI
Region United States
Timezone America/Chicago (UTC-6.0)
Plans Departing 0
Arriving 0
Stats Elevation 1,736 ft / 529 m (AMSL)
Location 43.982573° -96.300522°
Runways 2
Magnetic Variation 2.704° E
Sunrise 2017-12-10 13:50:35 UTC / 2017-12-10 07:50:35 Local
Sunset 2017-12-10 22:48:35 UTC / 2017-12-10 16:48:35 Local
Advertisement - Login to hide

Runways

ID Width Length Bearing (true) Bearing (mag) Surface Threshold Offset Overrun Length
09 221 ft / 67 m 2,535 ft / 773 m 96.89° 94.19° Grass 0 ft / 0 m 0 ft / 0 m
18 75 ft / 23 m 4,310 ft / 1,314 m 183.66° 180.96° Asphalt 0 ft / 0 m 0 ft / 0 m
27 221 ft / 67 m 2,535 ft / 773 m 276.90° 274.20° Grass 0 ft / 0 m 0 ft / 0 m
36 75 ft / 23 m 4,310 ft / 1,314 m 3.66° 0.96° Asphalt 0 ft / 0 m 500 ft / 152 m

Map

Weather


0- 5 10 15 20 25 30 35+ Temperature / ° C

Clouds and Precipitation
Forecast for 2017-12-11 06:00 UTC. Updated an hour ago

Ground ~20,000 ft ~40,000 ft Winds

METAR

KPQN 110435Z AUTO 28008KT 10SM CLR 01/M03 A2994 RMK AO2

TAF

Not found

Frequencies

Recorded 118.37 MHz AWOS 3
Approach 132.05 MHz MINNEAPOLIS CNTR
Unicom 122.80 MHz CTAF/UNICOM
Warning: Do not use this data for real-world aviation or navigation. No guarantee of current accuracy is given.